createdAt,value
2019-01-05T00:01:06.512Z,2
2019-01-05T00:06:08.966Z,2
2019-01-05T00:11:11.451Z,2
2019-01-05T00:16:13.954Z,2
2019-01-05T00:21:19.576Z,2
2019-01-05T00:26:18.782Z,2
2019-01-05T00:31:21.253Z,2
2019-01-05T00:36:23.698Z,1
2019-01-05T00:41:26.152Z,2
2019-01-05T00:46:28.633Z,2
2019-01-05T00:51:31.085Z,2
2019-01-05T00:56:33.580Z,1
2019-01-05T01:01:35.992Z,2
2019-01-05T01:06:38.451Z,1
2019-01-05T01:11:40.903Z,1
2019-01-05T01:16:43.364Z,1
2019-01-05T01:21:45.801Z,1
2019-01-05T01:26:48.263Z,0
2019-01-05T01:31:50.727Z,1
2019-01-05T01:36:53.180Z,1
2019-01-05T01:41:55.634Z,1
2019-01-05T01:46:58.099Z,1
2019-01-05T01:52:00.554Z,1
2019-01-05T01:57:03.004Z,1
2019-01-05T02:02:05.474Z,1
2019-01-05T02:07:07.921Z,1
2019-01-05T02:12:10.390Z,0
2019-01-05T02:17:12.841Z,1
2019-01-05T02:22:15.301Z,0
2019-01-05T02:27:17.750Z,0
2019-01-05T02:32:20.481Z,0
2019-01-05T02:37:22.797Z,0
2019-01-05T02:42:25.110Z,0
2019-01-05T02:47:27.570Z,0
2019-01-05T02:52:30.025Z,0
2019-01-05T02:57:32.476Z,0
2019-01-05T03:02:34.955Z,0
2019-01-05T03:07:37.407Z,0
2019-01-05T03:12:39.865Z,0
2019-01-05T03:17:42.338Z,0
2019-01-05T03:22:44.787Z,0
2019-01-05T03:27:47.249Z,0
2019-01-05T03:32:49.694Z,1
2019-01-05T03:37:52.140Z,0
2019-01-05T03:42:54.613Z,0
2019-01-05T03:47:57.058Z,0
2019-01-05T03:52:59.502Z,1
2019-01-05T03:58:01.995Z,0
2019-01-05T04:03:04.464Z,0
2019-01-05T04:08:06.912Z,0
2019-01-05T04:13:09.342Z,0
2019-01-05T04:18:11.795Z,0
2019-01-05T04:23:14.292Z,0
2019-01-05T04:28:16.711Z,0
2019-01-05T04:33:19.160Z,0
2019-01-05T04:38:21.638Z,0
2019-01-05T04:43:24.070Z,0
2019-01-05T04:48:26.566Z,0
2019-01-05T04:53:28.989Z,0
2019-01-05T04:58:31.452Z,0
2019-01-05T05:03:33.954Z,0
2019-01-05T05:08:36.373Z,0
2019-01-05T05:13:38.856Z,0
2019-01-05T05:18:41.280Z,0
2019-01-05T05:23:43.837Z,0
2019-01-05T05:28:46.246Z,0
2019-01-05T05:33:48.675Z,0
2019-01-05T05:38:51.133Z,0
2019-01-05T05:43:53.557Z,0
2019-01-05T05:48:56.036Z,0
2019-01-05T05:53:58.481Z,0
2019-01-05T05:59:00.931Z,0
2019-01-05T06:04:03.393Z,0
2019-01-05T06:09:05.955Z,0
2019-01-05T06:14:08.310Z,0
2019-01-05T06:19:10.778Z,0
2019-01-05T06:24:13.210Z,0
2019-01-05T06:29:15.687Z,0
2019-01-05T06:34:18.128Z,0
2019-01-05T06:39:20.577Z,0
2019-01-05T06:44:23.029Z,0
2019-01-05T06:49:25.503Z,0
2019-01-05T06:54:27.945Z,0
2019-01-05T06:59:30.414Z,0
2019-01-05T07:04:32.851Z,0
2019-01-05T07:09:35.319Z,0
2019-01-05T07:14:37.824Z,0
2019-01-05T07:19:40.237Z,0
2019-01-05T07:24:42.695Z,0
2019-01-05T07:29:45.234Z,0
2019-01-05T07:34:47.602Z,0
2019-01-05T07:39:50.059Z,0
2019-01-05T07:44:52.509Z,0
2019-01-05T07:49:54.980Z,0
2019-01-05T07:54:57.424Z,0
2019-01-05T07:59:59.883Z,0
2019-01-05T08:05:02.442Z,0
2019-01-05T08:10:04.793Z,0
2019-01-05T08:15:07.262Z,0
2019-01-05T08:20:09.723Z,0
2019-01-05T08:25:12.204Z,0
2019-01-05T08:30:14.639Z,0
2019-01-05T08:35:17.080Z,0
2019-01-05T08:40:19.536Z,1
2019-01-05T08:45:22.001Z,0
2019-01-05T08:50:24.466Z,1
2019-01-05T08:55:26.960Z,0
2019-01-05T09:00:29.378Z,1
2019-01-05T09:05:31.877Z,1
2019-01-05T09:10:34.296Z,1
2019-01-05T09:15:36.759Z,1
2019-01-05T09:20:39.220Z,1
2019-01-05T09:25:42.142Z,1
2019-01-05T09:30:44.145Z,1
2019-01-05T09:35:46.580Z,1
2019-01-05T09:40:49.033Z,1
2019-01-05T09:45:51.517Z,2
2019-01-05T09:50:53.952Z,2
2019-01-05T09:55:56.408Z,2
2019-01-05T10:00:58.871Z,2
2019-01-05T10:06:01.376Z,1
2019-01-05T10:11:03.797Z,1
2019-01-05T10:16:06.245Z,1
2019-01-05T10:21:08.694Z,1
2019-01-05T10:26:11.160Z,2
2019-01-05T10:31:13.607Z,2
2019-01-05T10:36:16.067Z,2
2019-01-05T10:41:18.549Z,2
2019-01-05T10:46:20.986Z,2
2019-01-05T10:51:23.440Z,2
2019-01-05T10:56:25.899Z,3
2019-01-05T11:01:28.343Z,3
2019-01-05T11:06:30.814Z,3
2019-01-05T11:11:33.298Z,3
2019-01-05T11:16:35.722Z,2
2019-01-05T11:21:38.261Z,2
2019-01-05T11:26:40.677Z,2
2019-01-05T11:31:43.110Z,2
2019-01-05T11:36:45.604Z,2
2019-01-05T11:41:48.006Z,3
2019-01-05T11:46:50.474Z,3
2019-01-05T11:51:53.029Z,2
2019-01-05T11:56:55.416Z,6
2019-01-05T12:01:57.849Z,2
2019-01-05T12:07:00.379Z,3
2019-01-05T12:12:02.747Z,1
2019-01-05T12:17:05.206Z,2
2019-01-05T12:22:07.672Z,2
2019-01-05T12:27:10.287Z,2
2019-01-05T12:32:12.607Z,1
2019-01-05T12:37:15.049Z,1
2019-01-05T12:42:17.579Z,2
2019-01-05T12:47:19.948Z,1
2019-01-05T12:52:22.419Z,2
2019-01-05T12:57:24.857Z,2
2019-01-05T13:02:27.364Z,2
2019-01-05T13:07:29.781Z,2
2019-01-05T13:12:32.290Z,1
2019-01-05T13:17:34.689Z,1
2019-01-05T13:22:37.160Z,2
2019-01-05T13:27:39.624Z,4
2019-01-05T13:32:42.062Z,4
2019-01-05T13:37:44.517Z,3
2019-01-05T13:42:46.993Z,4
2019-01-05T13:47:49.537Z,4
2019-01-05T13:52:51.912Z,6
2019-01-05T13:57:54.348Z,4
2019-01-05T14:02:56.871Z,3
2019-01-05T14:07:59.299Z,4
2019-01-05T14:13:01.777Z,3
2019-01-05T14:18:04.288Z,4
2019-01-05T14:23:06.652Z,4
2019-01-05T14:28:09.087Z,5
2019-01-05T14:33:11.549Z,4
2019-01-05T14:38:14.006Z,5
2019-01-05T14:43:16.460Z,4
2019-01-05T14:48:19.209Z,4
2019-01-05T14:53:21.417Z,5
2019-01-05T14:58:23.877Z,6
2019-01-05T15:03:26.298Z,6
2019-01-05T15:08:28.754Z,5
2019-01-05T15:13:31.262Z,6
2019-01-05T15:18:33.711Z,5
2019-01-05T15:23:36.117Z,6
2019-01-05T15:28:38.584Z,6
2019-01-05T15:33:41.046Z,5
2019-01-05T15:38:43.515Z,6
2019-01-05T15:43:45.948Z,7
2019-01-05T15:48:48.405Z,5
2019-01-05T15:53:50.869Z,4
2019-01-05T15:58:53.369Z,6
2019-01-05T16:03:55.781Z,5
2019-01-05T16:08:58.257Z,6
2019-01-05T16:14:00.707Z,5
2019-01-05T16:19:03.187Z,8
2019-01-05T16:24:05.634Z,7
2019-01-05T16:29:08.059Z,8
2019-01-05T16:34:10.555Z,6
2019-01-05T16:39:12.992Z,7
2019-01-05T16:44:15.437Z,7
2019-01-05T16:49:17.897Z,8
2019-01-05T16:54:20.392Z,8
2019-01-05T16:59:22.856Z,7
2019-01-05T17:04:25.350Z,6
2019-01-05T17:09:27.741Z,5
2019-01-05T17:14:30.180Z,6
2019-01-05T17:19:36.410Z,6
2019-01-05T17:24:35.100Z,6
2019-01-05T17:29:37.565Z,7
2019-01-05T17:34:40.020Z,8
2019-01-05T17:39:42.475Z,7
2019-01-05T17:44:44.939Z,8
2019-01-05T17:49:47.410Z,7
2019-01-05T17:54:49.861Z,7
2019-01-05T17:59:52.334Z,6
2019-01-05T18:04:54.763Z,7
2019-01-05T18:09:57.243Z,9
2019-01-05T18:14:59.677Z,8
2019-01-05T18:20:02.155Z,9
2019-01-05T18:25:04.594Z,8
2019-01-05T18:30:07.097Z,10
2019-01-05T18:35:09.517Z,10
2019-01-05T18:40:11.976Z,10
2019-01-05T18:45:14.425Z,9
2019-01-05T18:50:16.879Z,9
2019-01-05T18:55:19.327Z,6
2019-01-05T19:00:22.015Z,8
2019-01-05T19:05:24.262Z,12
2019-01-05T19:10:26.741Z,7
2019-01-05T19:15:29.180Z,6
2019-01-05T19:20:31.632Z,6
2019-01-05T19:25:34.098Z,5
2019-01-05T19:30:36.872Z,4
2019-01-05T19:35:39.002Z,5
2019-01-05T19:40:41.450Z,3
2019-01-05T19:45:43.973Z,3
2019-01-05T19:50:46.405Z,4
2019-01-05T19:55:48.817Z,5
2019-01-05T20:00:51.303Z,6
2019-01-05T20:05:53.725Z,7
2019-01-05T20:10:56.205Z,9
2019-01-05T20:15:58.734Z,9
2019-01-05T20:21:01.178Z,9
2019-01-05T20:26:03.580Z,11
2019-01-05T20:31:06.021Z,7
2019-01-05T20:36:08.481Z,5
2019-01-05T20:41:10.927Z,6
2019-01-05T20:46:13.420Z,5
2019-01-05T20:51:15.879Z,8
2019-01-05T20:56:18.310Z,9
2019-01-05T21:01:20.768Z,11
2019-01-05T21:06:23.237Z,11
2019-01-05T21:11:25.686Z,9
2019-01-05T21:16:28.178Z,8
2019-01-05T21:21:30.593Z,10
2019-01-05T21:26:33.074Z,11
2019-01-05T21:31:35.504Z,11
2019-01-05T21:36:37.996Z,12
2019-01-05T21:41:40.418Z,10
2019-01-05T21:46:42.908Z,10
2019-01-05T21:51:45.330Z,7
2019-01-05T21:56:47.790Z,6
2019-01-05T22:01:50.264Z,8
2019-01-05T22:06:53.130Z,9
2019-01-05T22:11:55.226Z,6
2019-01-05T22:16:57.626Z,9
2019-01-05T22:22:00.089Z,9
2019-01-05T22:27:02.542Z,9
2019-01-05T22:32:05.010Z,8
2019-01-05T22:37:07.462Z,9
2019-01-05T22:42:09.958Z,9
2019-01-05T22:47:12.385Z,8
2019-01-05T22:52:14.820Z,9
2019-01-05T22:57:17.384Z,10
2019-01-05T23:02:19.735Z,9
2019-01-05T23:07:22.454Z,9
2019-01-05T23:12:24.656Z,10
2019-01-05T23:17:27.103Z,8
2019-01-05T23:22:29.558Z,9
2019-01-05T23:27:32.015Z,9
2019-01-05T23:32:34.478Z,3
2019-01-05T23:37:36.984Z,2
2019-01-05T23:42:39.390Z,1
2019-01-05T23:47:43.511Z,1
2019-01-05T23:52:44.313Z,1
2019-01-05T23:57:46.787Z,2
